ADDS METAR Data INFO
IDs: Format: Raw Decoded Include TAF

Data at: 0714 UTC 19 Oct 2017

KIER 190655Z AUTO 00000KT 7SM CLR 11/11 A3015 RMK AO2 T01100110
KIER 190635Z AUTO 00000KT 7SM CLR 11/11 A3015 RMK AO2 T01050105
KIER 190620Z AUTO 00000KT 10SM CLR 11/11 A3015 RMK AO2 T01070107
KIER 190555Z AUTO 00000KT 5SM BR CLR 11/11 A3015 RMK AO2 T01060106 10172 20106 402750060
KIER 190535Z AUTO 00000KT 7SM CLR 11/11 A3015 RMK AO2 T01110111
KIER 190515Z AUTO 00000KT 10SM CLR 11/11 A3016 RMK AO2 T01080108
KIER 190455Z AUTO 00000KT 10SM CLR 11/11 A3016 RMK AO2 T01140114
KIER 190435Z AUTO 00000KT 10SM CLR 12/12 A3016 RMK AO2 T01150115
KIER 190415Z AUTO 00000KT 10SM CLR 11/11 A3016 RMK AO2 T01130113
KIER 190355Z AUTO 00000KT 10SM CLR 12/12 A3016 RMK AO2 T01170117
KIER 190335Z AUTO 00000KT 10SM CLR 12/12 A3016 RMK AO2 T01220122
KIER 190315Z AUTO 00000KT 10SM CLR 13/13 A3016 RMK AO2 T01250125
KIER 190255Z AUTO 00000KT 10SM CLR 13/13 A3016 RMK AO2 T01260126
KIER 190235Z AUTO 00000KT 10SM CLR 13/13 A3016 RMK AO2 T01300130
KIER 190215Z AUTO 00000KT 10SM CLR 13/13 A3016 RMK AO2 T01310131
KIER 190155Z AUTO 00000KT 10SM CLR 14/14 A3016 RMK AO2 T01350135
KIER 190135Z AUTO 00000KT 10SM CLR 14/13 A3016 RMK AO2 T01400134
KIER 190115Z AUTO 00000KT 10SM CLR 14/14 A3016 RMK AO2 T01420136
KIER 190055Z AUTO 00000KT 10SM CLR 15/14 A3016 RMK AO2 T01460138
KIER 190035Z AUTO 00000KT 10SM CLR 16/14 A3015 RMK AO2 T01570135
KIER 190015Z AUTO 00000KT 10SM CLR 16/14 A3014 RMK AO2 T01620140
KIER 182355Z AUTO 00000KT 10SM CLR 17/14 A3013 RMK AO2 T01740138 10275 20174
KIER 182335Z AUTO 00000KT 10SM CLR 20/14 A3012 RMK AO2 T01980135
KIER 182315Z AUTO 08003KT 10SM CLR 25/12 A3013 RMK AO2 T02450117
KIER 182255Z AUTO 13004KT 10SM CLR 26/12 A3013 RMK AO2 T02560115
KIER 182235Z AUTO 15004KT 10SM CLR 27/12 A3012 RMK AO2 T02660118
KIER 182215Z AUTO 16003KT 10SM CLR 27/11 A3012 RMK AO2 T02730113
KIER 182155Z AUTO 17004KT 10SM CLR 27/11 A3012 RMK AO2 T02720108
KIER 182135Z AUTO 23003KT 10SM CLR 27/11 A3012 RMK AO2 T02700110
KIER 182115Z AUTO 12004KT 10SM CLR 27/10 A3012 RMK AO2 T02730103
KIER 182055Z AUTO 13005KT 10SM CLR 27/11 A3013 RMK AO2 T02710111
KIER 182035Z AUTO 00000KT 10SM CLR 27/11 A3013 RMK AO2 T02720114
KIER 182015Z AUTO 10006KT 10SM CLR 27/12 A3013 RMK AO2 T02720119
KIER 181955Z AUTO 00000KT 10SM CLR 26/12 A3014 RMK AO2 T02620120
KIER 181935Z AUTO 05005KT 10SM CLR 26/12 A3015 RMK AO2 T02630122
KIER 181915Z AUTO 04006KT 10SM CLR 26/12 A3016 RMK AO2 T02590118
KIER 181855Z AUTO 07004KT 10SM CLR 26/12 A3017 RMK AO2 T02560118
KIER 181835Z AUTO 11004KT 10SM CLR 26/12 A3018 RMK AO2 T02550120
KIER 181815Z AUTO 04004KT 10SM CLR 25/12 A3019 RMK AO2 T02490121
KIER 181755Z AUTO 10003KT 10SM CLR 24/12 A3020 RMK AO2 T02440121 10245 20060
KIER 181735Z AUTO 00000KT 10SM CLR 24/12 A3021 RMK AO2 T02410120
KIER 181715Z AUTO 17003KT 10SM CLR 23/12 A3021 RMK AO2 T02320121
KIER 181655Z AUTO 00000KT 10SM CLR 23/12 A3022 RMK AO2 T02280122
KIER 181635Z AUTO 22003KT 10SM CLR 22/12 A3022 RMK AO2 T02210122
KIER 181615Z AUTO 15004KT 10SM CLR 21/13 A3022 RMK AO2 T02140125
KIER 181555Z AUTO 13005KT 10SM CLR 20/13 A3023 RMK AO2 T02040125
KIER 181535Z AUTO 15005KT 10SM CLR 19/12 A3023 RMK AO2 T01900120
KIER 181515Z AUTO 15004KT 10SM CLR 18/12 A3023 RMK AO2 T01790122
KIER 181455Z AUTO 17003KT 10SM CLR 16/13 A3023 RMK AO2 T01600126
KIER 181435Z AUTO 16004KT 10SM CLR 15/13 A3023 RMK AO2 T01460127
KIER 181415Z AUTO 16003KT 10SM CLR 14/12 A3022 RMK AO2 T01360121
KIER 181355Z AUTO 00000KT 10SM CLR 12/12 A3021 RMK AO2 T01240116
KIER 181335Z AUTO 00000KT 7SM CLR 10/10 A3021 RMK AO2 T01040104
KIER 181315Z AUTO 00000KT 7SM CLR 09/09 A3020 RMK AO2 T00860086
KIER 181255Z AUTO 00000KT 7SM CLR 07/07 A3020 RMK AO2 T00700070
KIER 181235Z AUTO 00000KT 5SM BR CLR 06/06 A3020 RMK AO2 T00610061
KIER 181215Z AUTO 00000KT 7SM CLR 06/06 A3019 RMK AO2 T00600060
KIER 181155Z AUTO 00000KT 10SM CLR 06/06 A3019 RMK AO2 T00620062 10081 20061
KIER 181135Z AUTO 00000KT 10SM CLR 06/06 A3019 RMK AO2 T00620062
KIER 181115Z AUTO 00000KT 5SM BR CLR 06/06 A3019 RMK AO2 T00620062
KIER 181055Z AUTO 00000KT 10SM CLR 07/07 A3019 RMK AO2 T00650065
KIER 181035Z AUTO 00000KT 10SM CLR 07/07 A3018 RMK AO2 T00670067
KIER 181015Z AUTO 00000KT 10SM CLR 07/07 A3018 RMK AO2 T00670067
KIER 180955Z AUTO 00000KT 10SM CLR 07/07 A3018 RMK AO2 T00670067
KIER 180935Z AUTO 00000KT 10SM CLR 07/07 A3018 RMK AO2 T00680068
KIER 180915Z AUTO 00000KT 10SM CLR 07/07 A3018 RMK AO2 T00700070
KIER 180855Z AUTO 00000KT 10SM CLR 08/08 A3019 RMK AO2 T00750075
KIER 180835Z AUTO 00000KT 10SM CLR 07/07 A3019 RMK AO2 T00730073
KIER 180815Z AUTO 00000KT 10SM CLR 07/07 A3019 RMK AO2 T00730073
KIER 180755Z AUTO 00000KT 10SM CLR 07/07 A3019 RMK AO2 T00730073
KIER 180735Z AUTO 00000KT 10SM CLR 07/07 A3019 RMK AO2 T00720072
KIER 180715Z AUTO 00000KT 10SM CLR 07/07 A3019 RMK AO2 T00730073
KIER 180655Z AUTO 00000KT 10SM CLR 08/08 A3019 RMK AO2 T00780078
KIER 180635Z AUTO 00000KT 10SM CLR 08/08 A3019 RMK AO2 T00780078
KIER 180615Z AUTO 00000KT 10SM CLR 08/08 A3019 RMK AO2 T00810081
KIER 180555Z AUTO 00000KT 10SM CLR 08/08 A3019 RMK AO2 T00800080 10181 20079 402410066
KIER 180535Z AUTO 00000KT 10SM CLR 08/08 A3019 RMK AO2 T00810081
KIER 180515Z AUTO 00000KT 10SM CLR 08/08 A3019 RMK AO2 T00830083
KIER 180455Z AUTO 00000KT 10SM CLR 09/09 A3019 RMK AO2 T00860086
KIER 180435Z AUTO 00000KT 10SM CLR 09/09 A3019 RMK AO2 T00870087
KIER 180415Z AUTO 00000KT 10SM CLR 09/09 A3020 RMK AO2 T00870087
KIER 180355Z AUTO 00000KT 10SM CLR 09/09 A3020 RMK AO2 T00900090
KIER 180335Z AUTO 00000KT 10SM CLR 09/09 A3019 RMK AO2 T00910091
KIER 180315Z AUTO 00000KT 10SM CLR 09/09 A3019 RMK AO2 T00910091
KIER 180255Z AUTO 00000KT 10SM CLR 10/10 A3019 RMK AO2 T00970097
KIER 180235Z AUTO 00000KT 10SM CLR 10/10 A3019 RMK AO2 T01000096
KIER 180215Z AUTO 00000KT 10SM CLR 11/10 A3019 RMK AO2 T01050099
KIER 180155Z AUTO 00000KT 10SM CLR 11/10 A3018 RMK AO2 T01070097
KIER 180135Z AUTO 00000KT 10SM CLR 11/09 A3018 RMK AO2 T01100090
KIER 180115Z AUTO 00000KT 10SM CLR 12/10 A3018 RMK AO2 T01220095
KIER 180055Z AUTO 00000KT 10SM CLR 13/09 A3017 RMK AO2 T01290090
KIER 180035Z AUTO 00000KT 10SM CLR 17/08 A3017 RMK AO2 T01700076
KIER 180015Z AUTO 04003KT 10SM CLR 18/08 A3017 RMK AO2 T01750075
KIER 172355Z AUTO 05004KT 10SM CLR 18/07 A3016 RMK AO2 T01830073 10241 20183
KIER 172335Z AUTO 03005KT 10SM CLR 20/07 A3016 RMK AO2 T01970071
KIER 172315Z AUTO 03007KT 10SM CLR 21/07 A3016 RMK AO2 T02120071
KIER 172255Z AUTO 03008KT 10SM CLR 22/07 A3015 RMK AO2 T02220069
KIER 172235Z AUTO 05006KT 10SM CLR 23/07 A3016 RMK AO2 T02300071
KIER 172215Z AUTO 03006KT 10SM CLR 24/07 A3016 RMK AO2 T02350069
KIER 172155Z AUTO 04007KT 10SM CLR 24/08 A3016 RMK AO2 T02400079
KIER 172135Z AUTO 36006KT 10SM CLR 24/07 A3017 RMK AO2 T02370074
KIER 172115Z AUTO 01004KT 10SM CLR 24/07 A3018 RMK AO2 T02400071
KIER 172055Z AUTO 36007KT 10SM CLR 24/07 A3018 RMK AO2 T02410074
KIER 172035Z AUTO 04009KT 10SM CLR 24/07 A3018 RMK AO2 T02390070
KIER 172015Z AUTO 08007KT 10SM CLR 24/06 A3019 RMK AO2 T02370064
KIER 171955Z AUTO 04006KT 10SM CLR 24/07 A3019 RMK AO2 T02350065
KIER 171935Z AUTO 04007KT 10SM CLR 23/07 A3020 RMK AO2 T02330066
KIER 171915Z AUTO 01005KT 10SM CLR 23/07 A3021 RMK AO2 T02270069